Time;durP1;ratioP1;P1;durP2;ratioP2;P2;SDS_P1;SDS_P2;PMS_P1;PMS_P2;Temp;Humidity;BMP_temperature;BMP_pressure;BME280_temperature;BME280_humidity;BME280_pressure;Samples;Min_cycle;Max_cycle;Signal;HPM_P1;HPM_P2
2023/08/22 00:00:51;;;;;;;8.45;3.72;;;16.70;99.90;;;;;;5033460;28;20029;-72
2023/08/22 00:03:17;;;;;;;5.65;3.47;;;17.20;99.90;;;;;;5033763;28;20032;-72
2023/08/22 00:05:42;;;;;;;8.00;3.90;;;17.00;99.90;;;;;;5033621;28;20037;-72
2023/08/22 00:08:08;;;;;;;9.15;4.28;;;17.00;99.90;;;;;;5034099;28;20026;-72
2023/08/22 00:10:34;;;;;;;8.77;4.20;;;16.10;99.90;;;;;;5033441;28;20026;-72
2023/08/22 00:13:00;;;;;;;5.85;3.45;;;16.70;99.90;;;;;;5033980;28;20352;-72
2023/08/22 00:15:26;;;;;;;7.35;4.10;;;16.70;99.90;;;;;;5033655;28;20029;-72
2023/08/22 00:17:52;;;;;;;6.15;3.70;;;16.70;99.90;;;;;;5033236;28;20026;-72
2023/08/22 00:20:18;;;;;;;9.00;4.22;;;16.70;99.90;;;;;;5033401;28;20022;-72
2023/08/22 00:22:44;;;;;;;7.55;3.70;;;16.20;99.90;;;;;;5033325;28;20479;-72
2023/08/22 00:25:11;;;;;;;7.32;3.78;;;16.60;99.90;;;;;;5033849;28;20034;-72
2023/08/22 00:27:37;;;;;;;7.15;4.00;;;17.20;99.90;;;;;;5033499;28;20025;-72
2023/08/22 00:30:04;;;;;;;5.75;3.63;;;16.50;99.90;;;;;;5033208;28;20029;-72
2023/08/22 00:32:30;;;;;;;5.78;3.95;;;16.50;99.90;;;;;;5033512;28;20026;-72
2023/08/22 00:34:56;;;;;;;6.18;3.95;;;16.40;99.90;;;;;;5033754;28;20017;-73
2023/08/22 00:37:22;;;;;;;5.45;4.18;;;16.20;99.90;;;;;;5033711;28;20379;-72
2023/08/22 00:39:48;;;;;;;8.10;3.90;;;16.90;99.90;;;;;;5033294;28;20051;-73
2023/08/22 00:42:13;;;;;;;5.65;4.05;;;16.60;99.90;;;;;;5033271;28;20025;-72
2023/08/22 00:44:39;;;;;;;9.98;4.25;;;16.50;99.90;;;;;;5033665;28;20533;-73
2023/08/22 00:47:05;;;;;;;8.65;4.55;;;16.40;99.90;;;;;;5032422;28;20450;-73
2023/08/22 00:49:31;;;;;;;4.90;3.92;;;16.40;99.90;;;;;;5033203;28;20026;-73
2023/08/22 00:51:59;;;;;;;5.43;3.38;;;16.20;99.90;;;;;;5033292;28;20036;-72
2023/08/22 00:54:26;;;;;;;6.32;4.20;;;15.40;99.90;;;;;;5035740;28;20482;-72
2023/08/22 00:56:53;;;;;;;6.53;3.70;;;16.40;99.90;;;;;;5036486;28;20180;-72
2023/08/22 00:59:19;;;;;;;6.93;4.93;;;16.20;99.90;;;;;;5036710;28;20056;-72
2023/08/22 01:01:46;;;;;;;9.15;4.55;;;16.20;99.90;;;;;;5036996;28;20021;-72
2023/08/22 01:04:12;;;;;;;9.18;4.35;;;16.30;99.90;;;;;;5036709;28;20027;-72
2023/08/22 01:07:17;;;;;;;6.55;4.35;;;16.20;99.90;;;;;;5036736;28;20033;-72
2023/08/22 01:09:53;;;;;;;6.82;4.05;;;15.50;99.90;;;;;;5036011;28;20049;-72
2023/08/22 01:12:27;;;;;;;8.57;4.10;;;17.70;99.90;;;;;;5036391;28;20091;-72
2023/08/22 01:15:00;;;;;;;9.48;4.38;;;17.00;99.90;;;;;;5036143;28;20029;-72
2023/08/22 01:17:27;;;;;;;7.95;4.70;;;16.00;99.90;;;;;;5036130;28;20029;-72
2023/08/22 01:19:53;;;;;;;7.32;4.68;;;16.20;99.90;;;;;;5036327;28;20034;-72
2023/08/22 01:22:24;;;;;;;9.55;4.72;;;16.10;99.90;;;;;;5036273;28;20098;-72
2023/08/22 01:24:49;;;;;;;7.10;4.63;;;16.00;99.90;;;;;;5035989;28;20025;-72
2023/08/22 01:27:17;;;;;;;7.80;4.85;;;16.20;99.90;;;;;;5036116;28;20463;-72
2023/08/22 01:29:51;;;;;;;5.90;4.38;;;16.10;99.90;;;;;;5036131;28;20025;-72
2023/08/22 01:32:26;;;;;;;8.48;4.40;;;16.10;99.90;;;;;;5035953;28;20021;-72
2023/08/22 01:34:56;;;;;;;7.53;3.95;;;16.20;99.90;;;;;;5036115;28;20040;-72
2023/08/22 01:37:23;;;;;;;7.97;5.28;;;16.20;99.90;;;;;;5036456;28;20025;-72
2023/08/22 01:39:55;;;;;;;5.18;4.60;;;16.10;99.90;;;;;;5035705;28;20084;-72
2023/08/22 01:42:21;;;;;;;8.82;5.50;;;16.20;99.90;;;;;;5035917;28;20025;-72
2023/08/22 01:44:47;;;;;;;12.05;6.00;;;16.20;99.90;;;;;;5035723;28;20475;-72
2023/08/22 01:47:13;;;;;;;11.15;6.60;;;16.10;99.90;;;;;;5035091;28;20099;-72
2023/08/22 01:49:38;;;;;;;9.40;6.45;;;16.20;99.90;;;;;;5035579;28;20026;-72
2023/08/22 01:52:04;;;;;;;7.50;6.35;;;16.10;99.90;;;;;;5035500;28;20399;-72
2023/08/22 01:54:30;;;;;;;12.80;6.38;;;16.20;99.90;;;;;;5035442;28;20130;-72
2023/08/22 01:56:55;;;;;;;10.52;5.53;;;16.20;99.90;;;;;;5036141;28;20034;-73
2023/08/22 01:59:21;;;;;;;9.73;5.82;;;16.20;99.90;;;;;;5035951;28;20037;-72
2023/08/22 02:01:47;;;;;;;8.18;5.88;;;16.30;99.90;;;;;;5035940;28;20475;-72
2023/08/22 02:04:12;;;;;;;7.63;5.85;;;16.20;99.90;;;;;;5035818;28;20034;-73
2023/08/22 02:06:38;;;;;;;10.68;5.85;;;16.20;99.90;;;;;;5035374;28;20032;-72
2023/08/22 02:09:05;;;;;;;9.43;5.70;;;16.20;99.90;;;;;;5035743;28;20029;-75
2023/08/22 02:11:31;;;;;;;12.73;6.60;;;16.10;99.90;;;;;;5035379;28;20045;-72
2023/08/22 02:13:56;;;;;;;8.75;6.20;;;16.20;99.90;;;;;;5035193;28;20022;-72
2023/08/22 02:16:22;;;;;;;7.78;5.63;;;16.20;99.90;;;;;;5035289;28;20032;-72
2023/08/22 02:18:48;;;;;;;7.18;5.28;;;16.30;99.90;;;;;;5035327;28;20029;-72
2023/08/22 02:21:14;;;;;;;10.05;6.15;;;16.30;99.90;;;;;;5035516;28;20120;-72
2023/08/22 02:23:39;;;;;;;10.98;5.47;;;16.20;99.90;;;;;;5035269;28;20033;-72
2023/08/22 02:26:05;;;;;;;8.10;5.20;;;16.30;99.90;;;;;;5034784;28;20029;-73
2023/08/22 02:28:31;;;;;;;9.68;5.78;;;16.30;99.90;;;;;;5035131;28;20025;-72
2023/08/22 02:30:57;;;;;;;8.88;6.07;;;16.40;99.90;;;;;;5035061;28;20383;-72
2023/08/22 02:33:23;;;;;;;8.95;5.72;;;16.70;99.90;;;;;;5035393;28;20037;-72
2023/08/22 02:35:49;;;;;;;6.40;4.72;;;17.20;99.90;;;;;;5034990;28;20040;-72
2023/08/22 02:38:14;;;;;;;5.97;5.22;;;16.80;99.90;;;;;;5035181;28;20033;-72
2023/08/22 02:40:40;;;;;;;10.77;5.82;;;16.10;99.90;;;;;;5034382;28;20033;-72
2023/08/22 02:43:06;;;;;;;8.35;5.30;;;15.90;99.90;;;;;;5034932;28;20087;-73
2023/08/22 02:45:31;;;;;;;8.95;5.45;;;16.30;99.90;;;;;;5034574;28;20403;-73
2023/08/22 02:47:57;;;;;;;6.63;5.20;;;15.90;99.90;;;;;;5034689;28;20021;-72
2023/08/22 02:50:23;;;;;;;8.07;5.38;;;16.20;99.90;;;;;;5034439;28;20025;-72
2023/08/22 02:52:50;;;;;;;8.88;5.85;;;16.60;99.90;;;;;;5034717;28;20053;-75
2023/08/22 02:55:16;;;;;;;10.85;6.32;;;16.30;99.90;;;;;;5034112;28;20025;-72
2023/08/22 02:57:42;;;;;;;7.10;5.85;;;16.30;99.90;;;;;;5034031;28;20044;-72
2023/08/22 03:00:11;;;;;;;14.07;6.28;;;16.30;99.90;;;;;;5034871;28;20030;-72
2023/08/22 03:02:37;;;;;;;8.77;5.63;;;16.40;99.90;;;;;;5034266;28;20407;-72
2023/08/22 03:05:04;;;;;;;10.60;6.32;;;16.10;99.90;;;;;;5034814;28;20033;-72
2023/08/22 03:07:30;;;;;;;7.90;5.35;;;15.80;99.90;;;;;;5034294;28;20057;-72
2023/08/22 03:09:55;;;;;;;6.70;4.72;;;15.90;99.90;;;;;;5034472;28;20079;-72
2023/08/22 03:12:21;;;;;;;11.15;6.47;;;16.00;99.90;;;;;;5034406;28;20029;-73
2023/08/22 03:14:47;;;;;;;8.70;5.88;;;16.80;99.90;;;;;;5033948;28;20022;-72
2023/08/22 03:17:12;;;;;;;7.20;5.50;;;16.40;99.90;;;;;;5034119;28;20033;-72
2023/08/22 03:19:38;;;;;;;8.75;6.35;;;15.70;99.90;;;;;;5034587;28;20411;-72
2023/08/22 03:22:04;;;;;;;8.10;6.30;;;16.20;99.90;;;;;;5033339;28;20032;-72
2023/08/22 03:24:30;;;;;;;7.78;5.75;;;16.20;99.90;;;;;;5034151;28;20033;-72
2023/08/22 03:26:56;;;;;;;12.18;6.85;;;16.10;99.90;;;;;;5033376;28;20035;-72
2023/08/22 03:29:22;;;;;;;8.82;7.05;;;16.10;99.90;;;;;;5034147;28;20116;-72
2023/08/22 03:31:47;;;;;;;8.95;5.90;;;16.10;99.90;;;;;;5033615;28;20056;-72
2023/08/22 03:34:13;;;;;;;8.05;5.80;;;16.10;99.90;;;;;;5033900;28;20022;-72
2023/08/22 03:36:38;;;;;;;7.22;6.15;;;16.10;99.90;;;;;;5034383;28;20083;-72
2023/08/22 03:39:04;;;;;;;8.77;6.18;;;16.10;99.90;;;;;;5033594;28;20371;-72
2023/08/22 03:41:30;;;;;;;9.05;5.85;;;16.20;99.90;;;;;;5034278;28;20061;-72
2023/08/22 03:43:55;;;;;;;11.57;6.75;;;16.20;99.90;;;;;;5033664;28;20055;-72
2023/08/22 03:46:21;;;;;;;9.20;7.05;;;16.20;99.90;;;;;;5033089;28;20041;-72
2023/08/22 03:48:46;;;;;;;14.50;7.13;;;16.20;99.90;;;;;;5033936;28;20029;-72
2023/08/22 03:51:12;;;;;;;11.80;7.47;;;16.20;99.90;;;;;;5032902;28;20483;-72
2023/08/22 03:53:38;;;;;;;7.20;6.07;;;16.30;99.90;;;;;;5033899;28;20030;-72
2023/08/22 03:56:03;;;;;;;9.15;6.47;;;16.30;99.90;;;;;;5034112;28;20477;-72
2023/08/22 03:58:29;;;;;;;9.43;7.30;;;16.30;99.90;;;;;;5033708;28;20037;-72
2023/08/22 04:00:59;;;;;;;8.88;6.45;;;16.30;99.90;;;;;;5033461;28;20120;-72
2023/08/22 04:03:25;;;;;;;7.72;6.43;;;16.30;99.90;;;;;;5034114;28;20022;-72
2023/08/22 04:05:51;;;;;;;10.25;7.57;;;16.30;99.90;;;;;;5033651;28;20033;-72
2023/08/22 04:08:17;;;;;;;10.15;7.50;;;16.40;99.90;;;;;;5033754;28;20028;-72
2023/08/22 04:10:42;;;;;;;10.52;6.82;;;16.40;99.90;;;;;;5033649;28;20029;-72
2023/08/22 04:13:08;;;;;;;16.10;10.20;;;16.40;99.90;;;;;;5033685;28;20033;-72
2023/08/22 04:15:35;;;;;;;15.90;11.05;;;16.40;99.90;;;;;;5033047;28;20026;-72
2023/08/22 04:18:01;;;;;;;15.02;10.13;;;16.40;99.90;;;;;;5033084;28;20021;-72
2023/08/22 04:20:27;;;;;;;12.93;10.32;;;16.40;99.90;;;;;;5033875;28;20038;-72
2023/08/22 04:22:52;;;;;;;15.38;10.27;;;16.40;99.90;;;;;;5033848;28;20379;-72
2023/08/22 04:25:18;;;;;;;18.23;10.73;;;16.50;99.90;;;;;;5033638;28;20028;-74
2023/08/22 04:27:43;;;;;;;11.05;9.63;;;16.50;99.90;;;;;;5033267;28;20098;-71
2023/08/22 04:30:09;;;;;;;14.38;9.02;;;16.50;99.90;;;;;;5036685;28;20029;-72
2023/08/22 04:32:37;;;;;;;10.90;8.68;;;16.50;99.90;;;;;;5037088;28;20030;-72
2023/08/22 04:35:02;;;;;;;15.13;10.88;;;16.50;99.90;;;;;;5037599;28;20021;-72
2023/08/22 04:37:28;;;;;;;14.10;10.43;;;16.50;99.90;;;;;;5037074;28;20034;-72
2023/08/22 04:39:54;;;;;;;20.00;11.23;;;16.50;99.90;;;;;;5037224;28;20029;-72
2023/08/22 04:42:20;;;;;;;15.35;10.38;;;16.50;99.90;;;;;;5036983;28;20032;-72
2023/08/22 04:44:45;;;;;;;19.27;11.63;;;16.60;99.90;;;;;;5037107;28;20395;-72
2023/08/22 04:47:11;;;;;;;13.52;11.15;;;16.60;99.90;;;;;;5036158;28;20404;-72
2023/08/22 04:49:37;;;;;;;12.02;9.82;;;16.60;99.90;;;;;;5036420;28;20075;-72
2023/08/22 04:52:02;;;;;;;20.80;13.35;;;16.60;99.90;;;;;;5037079;28;20041;-72
2023/08/22 04:54:28;;;;;;;20.45;11.95;;;16.70;99.90;;;;;;5036666;28;20450;-73
2023/08/22 04:56:53;;;;;;;19.55;11.50;;;16.70;99.90;;;;;;5035945;28;20426;-73
2023/08/22 04:59:19;;;;;;;16.95;11.05;;;16.80;99.90;;;;;;5037083;28;20060;-73
2023/08/22 05:01:45;;;;;;;16.10;11.02;;;16.80;99.90;;;;;;5037125;28;20037;-72
2023/08/22 05:04:10;;;;;;;13.50;10.95;;;16.90;99.90;;;;;;5036337;28;20075;-72
2023/08/22 05:06:36;;;;;;;17.15;11.13;;;16.90;99.90;;;;;;5036546;28;20093;-72
2023/08/22 05:09:02;;;;;;;20.63;13.35;;;17.00;99.90;;;;;;5036666;28;20021;-73
2023/08/22 05:11:28;;;;;;;17.58;11.88;;;17.00;99.90;;;;;;5036198;28;20083;-75
2023/08/22 05:13:54;;;;;;;20.23;12.88;;;17.10;99.90;;;;;;5036602;28;20033;-72
2023/08/22 05:16:20;;;;;;;24.48;14.43;;;17.10;99.90;;;;;;5035587;28;20361;-72
2023/08/22 05:18:46;;;;;;;21.02;13.13;;;17.20;99.90;;;;;;5036729;28;20532;-72
2023/08/22 05:21:11;;;;;;;19.50;12.80;;;17.20;99.90;;;;;;5036741;28;20116;-72
2023/08/22 05:23:37;;;;;;;22.90;13.38;;;17.30;99.90;;;;;;5036625;28;20033;-71
2023/08/22 05:26:03;;;;;;;25.73;14.15;;;17.30;99.90;;;;;;5036477;28;20055;-71
2023/08/22 05:28:28;;;;;;;17.70;12.30;;;17.30;99.90;;;;;;5036165;28;20485;-71
2023/08/22 05:30:54;;;;;;;21.45;12.80;;;17.40;99.90;;;;;;5036618;28;20113;-72
2023/08/22 05:33:20;;;;;;;25.02;13.05;;;17.40;99.90;;;;;;5036461;28;20463;-72
2023/08/22 05:35:45;;;;;;;21.38;12.75;;;17.40;99.90;;;;;;5036112;28;20493;-72
2023/08/22 05:38:12;;;;;;;21.38;12.63;;;17.40;99.90;;;;;;5036389;28;20021;-71
2023/08/22 05:40:37;;;;;;;19.25;11.45;;;17.50;99.90;;;;;;5034749;28;20116;-71
2023/08/22 05:43:03;;;;;;;19.50;11.43;;;17.50;99.90;;;;;;5035370;28;20117;-72
2023/08/22 05:45:29;;;;;;;14.35;11.10;;;17.40;99.90;;;;;;5035848;28;20124;-71
2023/08/22 05:47:55;;;;;;;15.70;11.63;;;17.40;99.90;;;;;;5035164;28;20021;-71
2023/08/22 05:50:20;;;;;;;14.27;10.95;;;17.50;99.90;;;;;;5035039;28;20040;-71
2023/08/22 05:52:46;;;;;;;16.77;11.02;;;17.60;99.90;;;;;;5035935;28;20090;-72
2023/08/22 05:55:11;;;;;;;16.13;11.73;;;17.70;99.90;;;;;;5035489;28;20043;-71
2023/08/22 05:57:37;;;;;;;21.92;12.27;;;18.00;99.90;;;;;;5035437;28;20025;-71
2023/08/22 06:00:03;;;;;;;19.02;12.38;;;18.20;99.90;;;;;;5035710;28;20033;-72
2023/08/22 06:02:29;;;;;;;14.38;9.15;;;19.50;99.90;;;;;;5035489;28;20026;-72
2023/08/22 06:04:55;;;;;;;16.63;8.05;;;20.40;99.90;;;;;;5034612;28;20038;-72
2023/08/22 06:07:21;;;;;;;14.50;7.20;;;21.80;99.90;;;;;;5030067;28;20029;-72
2023/08/22 06:09:47;;;;;;;16.48;7.25;;;23.10;1.00;;;;;;5032824;28;20029;-73
2023/08/22 06:12:12;;;;;;;15.20;7.88;;;23.30;1.00;;;;;;5032910;28;20034;-73
2023/08/22 06:14:38;;;;;;;11.18;7.43;;;22.70;1.00;;;;;;5035175;28;20032;-72
2023/08/22 06:17:04;;;;;;;16.55;7.65;;;22.70;1.00;;;;;;5032359;28;20411;-73
2023/08/22 06:19:30;;;;;;;16.88;7.75;;;23.00;1.00;;;;;;5033105;28;20395;-73
2023/08/22 06:21:55;;;;;;;13.35;7.50;;;23.40;1.00;;;;;;5032248;28;20029;-72
2023/08/22 06:24:21;;;;;;;15.65;7.72;;;24.40;99.90;;;;;;5033787;28;20029;-73
2023/08/22 06:26:48;;;;;;;17.23;7.40;;;25.10;99.90;;;;;;5033987;28;20030;-73
2023/08/22 06:29:13;;;;;;;12.93;7.55;;;25.20;99.90;;;;;;5033284;28;20396;-71
2023/08/22 06:31:39;;;;;;;10.13;7.97;;;25.10;99.90;;;;;;5033397;28;20026;-67
2023/08/22 06:34:05;;;;;;;13.85;8.68;;;24.60;99.90;;;;;;5033938;28;20373;-70
2023/08/22 06:36:30;;;;;;;14.43;8.60;;;24.40;99.90;;;;;;5033400;28;20029;-67
2023/08/22 06:38:56;;;;;;;13.32;8.40;;;24.90;99.90;;;;;;5031159;28;20040;-67
2023/08/22 06:41:21;;;;;;;15.40;8.75;;;25.70;1.00;;;;;;5038269;28;20087;-67
2023/08/22 06:43:47;;;;;;;15.10;8.95;;;25.90;99.90;;;;;;5027609;28;20027;-67
2023/08/22 06:46:15;;;;;;;17.55;9.82;;;25.60;1.00;;;;;;5031092;28;20111;-66
2023/08/22 06:48:41;;;;;;;19.98;9.27;;;25.10;99.90;;;;;;5030573;28;20026;-71
2023/08/22 06:51:07;;;;;;;14.88;9.18;;;25.80;9.80;;;;;;5029770;28;20032;-69
2023/08/22 06:53:32;;;;;;;15.43;9.05;;;26.00;1.00;;;;;;5037651;28;20029;-68
2023/08/22 06:55:58;;;;;;;18.77;9.07;;;26.70;10.70;;;;;;5032645;28;20025;-68
2023/08/22 06:58:24;;;;;;;17.30;8.77;;;26.50;88.40;;;;;;5028946;28;20483;-72
2023/08/22 07:00:49;;;;;;;18.65;9.38;;;25.80;1.00;;;;;;5033156;28;20029;-69
2023/08/22 07:03:15;;;;;;;15.85;9.70;;;25.00;1.00;;;;;;5036175;28;20479;-69
2023/08/22 07:05:40;;;;;;;21.17;11.20;;;24.30;99.90;;;;;;5031323;28;20064;-69
2023/08/22 07:08:07;;;;;;;15.68;9.98;;;24.10;99.90;;;;;;5029826;28;20061;-70
2023/08/22 07:10:34;;;;;;;14.70;9.35;;;24.00;99.90;;;;;;5030967;28;20390;-69
2023/08/22 07:13:00;;;;;;;19.35;9.68;;;24.40;99.90;;;;;;5032438;28;20017;-70
2023/08/22 07:15:26;;;;;;;23.02;9.40;;;25.70;99.90;;;;;;5030447;28;20112;-70
2023/08/22 07:17:51;;;;;;;21.88;9.30;;;24.90;59.10;;;;;;5030813;28;20079;-70
2023/08/22 07:20:17;;;;;;;15.95;8.43;;;25.70;99.90;;;;;;5031516;28;20096;-70
2023/08/22 07:22:43;;;;;;;14.27;8.45;;;27.10;96.60;;;;;;5029118;28;20041;-69
2023/08/22 07:25:09;;;;;;;13.90;8.43;;;27.40;99.90;;;;;;5031348;28;20072;-74
2023/08/22 07:27:34;;;;;;;14.10;7.65;;;27.90;99.90;;;;;;5027655;28;20078;-70
2023/08/22 07:30:00;;;;;;;15.68;8.30;;;28.30;1.00;;;;;;5032825;28;20033;-70
2023/08/22 07:32:25;;;;;;;12.98;7.57;;;28.30;99.90;;;;;;5034095;28;20025;-70
2023/08/22 07:34:52;;;;;;;8.18;7.10;;;29.00;1.00;;;;;;5033213;28;20026;-70
2023/08/22 07:37:18;;;;;;;18.60;7.25;;;28.70;1.00;;;;;;5029764;28;20033;-70
2023/08/22 07:39:43;;;;;;;13.25;6.70;;;28.30;99.90;;;;;;5032663;28;20495;-70
2023/08/22 07:42:09;;;;;;;15.05;6.47;;;27.60;1.00;;;;;;5035736;28;20037;-70
2023/08/22 07:44:35;;;;;;;11.00;6.82;;;26.90;99.90;;;;;;5032386;28;20033;-70
2023/08/22 07:47:02;;;;;;;16.88;8.70;;;27.50;99.90;;;;;;5031471;28;20067;-71
2023/08/22 07:49:27;;;;;;;16.92;7.55;;;27.80;1.00;;;;;;5032671;28;20076;-70
2023/08/22 07:51:53;;;;;;;15.65;6.85;;;28.20;99.90;;;;;;5030655;28;20029;-71
2023/08/22 07:54:19;;;;;;;13.80;7.82;;;28.80;99.90;;;;;;5032265;28;20037;-70
2023/08/22 07:56:45;;;;;;;16.45;7.03;;;28.90;1.00;;;;;;5032431;28;20052;-70
2023/08/22 07:59:13;;;;;;;12.25;6.95;;;29.20;99.90;;;;;;5031352;28;20045;-70
2023/08/22 08:01:38;;;;;;;11.68;6.85;;;29.70;1.00;;;;;;5032354;28;20040;-70
2023/08/22 08:04:05;;;;;;;12.93;6.10;;;29.80;99.90;;;;;;5036336;28;20034;-70
2023/08/22 08:06:33;;;;;;;12.43;7.32;;;29.80;99.90;;;;;;5035125;28;20059;-70
2023/08/22 08:08:59;;;;;;;14.40;7.15;;;29.10;99.90;;;;;;5036678;28;20029;-70
2023/08/22 08:11:24;;;;;;;12.15;7.10;;;29.10;99.90;;;;;;5036548;28;20483;-71
2023/08/22 08:13:50;;;;;;;12.85;6.15;;;29.40;99.90;;;;;;5037110;28;20403;-70
2023/08/22 08:16:16;;;;;;;11.02;6.03;;;29.20;99.90;;;;;;5035993;28;20033;-70
2023/08/22 08:18:42;;;;;;;14.25;6.85;;;30.00;55.30;;;;;;5035926;28;20117;-71
2023/08/22 08:21:07;;;;;;;11.52;6.35;;;30.30;1.00;;;;;;5035596;28;20040;-70
2023/08/22 08:23:33;;;;;;;13.52;7.30;;;31.00;99.90;;;;;;5036561;28;20052;-70
2023/08/22 08:25:59;;;;;;;25.13;7.10;;;31.50;99.90;;;;;;5037379;28;20471;-70
2023/08/22 08:28:25;;;;;;;12.20;6.72;;;31.30;99.90;;;;;;5035264;28;20124;-71
2023/08/22 08:30:50;;;;;;;12.70;6.50;;;30.90;99.90;;;;;;5036601;28;20116;-70
2023/08/22 08:33:16;;;;;;;11.15;6.53;;;30.80;99.90;;;;;;5035102;28;20025;-70
2023/08/22 08:35:42;;;;;;;8.85;5.57;;;30.00;96.70;;;;;;5036510;28;20029;-70
2023/08/22 08:38:07;;;;;;;11.25;6.47;;;29.10;99.90;;;;;;5036144;28;20113;-69
2023/08/22 08:40:35;;;;;;;12.32;6.75;;;28.40;99.90;;;;;;5035558;28;20037;-69
2023/08/22 08:43:02;;;;;;;13.63;7.40;;;28.70;99.90;;;;;;5034692;28;20033;-71
2023/08/22 08:45:30;;;;;;;18.42;6.45;;;28.80;99.90;;;;;;5036849;28;20042;-69
2023/08/22 08:47:58;;;;;;;9.07;5.45;;;29.10;99.90;;;;;;5034352;28;20041;-70
2023/08/22 08:50:25;;;;;;;10.57;5.40;;;29.10;99.90;;;;;;5036084;28;20037;-70
2023/08/22 08:52:51;;;;;;;10.68;5.18;;;29.00;1.00;;;;;;5035933;28;20028;-70
2023/08/22 08:55:17;;;;;;;9.25;5.47;;;28.70;99.90;;;;;;5035926;28;20037;-69
2023/08/22 08:57:42;;;;;;;11.73;5.68;;;28.60;1.00;;;;;;5035619;28;20030;-70
2023/08/22 09:00:09;;;;;;;9.93;4.40;;;28.80;99.90;;;;;;5035583;28;20090;-70
2023/08/22 09:02:35;;;;;;;6.60;4.00;;;29.30;99.90;;;;;;5035424;28;20033;-70
2023/08/22 09:05:04;;;;;;;6.82;3.88;;;30.50;1.00;;;;;;5036240;28;20023;-70
2023/08/22 09:07:30;;;;;;;7.65;4.45;;;30.70;1.00;;;;;;5034990;28;20036;-70
2023/08/22 09:09:57;;;;;;;6.78;3.78;;;30.50;1.00;;;;;;5035744;28;20025;-70
2023/08/22 09:12:32;;;;;;;9.73;3.42;;;31.00;1.00;;;;;;5035446;28;20021;-71
2023/08/22 09:14:58;;;;;;;8.05;3.90;;;32.30;99.90;;;;;;5035532;28;20051;-70
2023/08/22 09:17:28;;;;;;;6.82;3.80;;;31.40;99.90;;;;;;5035718;28;20037;-70
2023/08/22 09:19:54;;;;;;;9.57;3.55;;;31.30;99.90;;;;;;5035597;28;20036;-70
2023/08/22 09:22:19;;;;;;;9.13;4.40;;;30.50;1.00;;;;;;5035795;28;20037;-70
2023/08/22 09:24:53;;;;;;;6.93;3.70;;;30.10;1.00;;;;;;5033889;28;20029;-70
2023/08/22 09:27:22;;;;;;;9.48;5.55;;;29.60;18.30;;;;;;5034656;28;20034;-74
2023/08/22 09:29:48;;;;;;;9.13;4.88;;;28.40;99.90;;;;;;5033338;28;20041;-74
2023/08/22 09:32:14;;;;;;;13.35;4.75;;;28.80;99.90;;;;;;5034497;28;20027;-73
2023/08/22 09:34:52;;;;;;;10.70;4.88;;;28.90;1.00;;;;;;5033414;28;20021;-74
2023/08/22 09:37:40;;;;;;;11.52;4.78;;;28.70;1.00;;;;;;5035453;28;20025;-74
2023/08/22 09:40:09;;;;;;;14.23;4.30;;;28.80;41.80;;;;;;5034353;28;20061;-73
2023/08/22 09:42:38;;;;;;;7.65;3.60;;;29.20;1.00;;;;;;5035636;28;20471;-73
2023/08/22 09:45:05;;;;;;;11.88;4.25;;;28.70;38.00;;;;;;5033200;28;20036;-73
2023/08/22 09:47:32;;;;;;;8.57;3.63;;;28.80;99.90;;;;;;5032576;28;20025;-73
2023/08/22 09:50:00;;;;;;;6.68;3.55;;;29.10;99.90;;;;;;5035254;28;20025;-72
2023/08/22 09:52:26;;;;;;;11.23;3.70;;;29.40;99.90;;;;;;5015821;28;20033;-74
2023/08/22 09:54:52;;;;;;;8.32;3.50;;;28.80;99.90;;;;;;5015766;28;20022;-74
2023/08/22 09:57:19;;;;;;;8.27;3.70;;;29.10;99.90;;;;;;5027716;28;20061;-74
2023/08/22 09:59:48;;;;;;;14.13;3.97;;;29.20;99.90;;;;;;5037754;28;20040;-73
2023/08/22 10:02:16;;;;;;;11.25;5.50;;;29.20;99.90;;;;;;5033986;28;20025;-73
2023/08/22 10:04:42;;;;;;;16.25;6.53;;;29.60;1.00;;;;;;5033466;28;20049;-73
2023/08/22 10:07:08;;;;;;;10.93;5.30;;;29.50;1.00;;;;;;5032953;28;20076;-73
2023/08/22 10:09:34;;;;;;;12.02;6.07;;;28.80;1.00;;;;;;5033904;28;20032;-73
2023/08/22 10:12:03;;;;;;;9.57;5.32;;;28.00;1.00;;;;;;5034231;28;20026;-73
2023/08/22 10:14:49;;;;;;;13.98;5.82;;;28.30;99.90;;;;;;5034659;28;20037;-73
2023/08/22 10:17:15;;;;;;;16.42;6.55;;;28.60;99.90;;;;;;5034021;28;20030;-74
2023/08/22 10:19:43;;;;;;;11.98;5.13;;;28.80;99.90;;;;;;5035210;28;20386;-73
2023/08/22 10:22:11;;;;;;;33.08;7.07;;;29.10;1.00;;;;;;5034413;28;20030;-73
2023/08/22 10:24:37;;;;;;;10.50;5.75;;;28.70;1.00;;;;;;5033939;28;20037;-73
2023/08/22 10:27:10;;;;;;;12.82;6.20;;;27.90;1.00;;;;;;5033463;28;20219;-72
2023/08/22 10:29:41;;;;;;;12.90;6.57;;;27.40;1.00;;;;;;5033330;28;20033;-73
2023/08/22 10:37:27;;;;;;;14.85;6.00;;;28.40;99.90;;;;;;5070840;28;20437;-73
2023/08/22 10:39:58;;;;;;;12.52;6.32;;;28.10;1.00;;;;;;5071023;28;20032;-72
2023/08/22 10:42:25;;;;;;;12.30;6.05;;;27.40;42.10;;;;;;5070296;28;20035;-70
2023/08/22 10:44:58;;;;;;;39.35;6.97;;;27.10;99.90;;;;;;5068693;28;20074;-71
2023/08/22 10:47:27;;;;;;;10.30;6.13;;;26.70;99.90;;;;;;5069144;28;20150;-71
2023/08/22 10:49:56;;;;;;;10.38;5.15;;;26.60;1.00;;;;;;5065963;28;20028;-72
2023/08/22 10:52:36;;;;;;;6.15;4.30;;;26.70;1.00;;;;;;5068550;28;20029;-71
2023/08/22 10:55:08;;;;;;;11.20;5.20;;;26.80;1.00;;;;;;5069067;28;20513;-71
2023/08/22 10:57:36;;;;;;;12.80;5.35;;;26.90;99.90;;;;;;5067697;28;20029;-71
2023/08/22 11:00:12;;;;;;;9.80;4.40;;;27.00;99.90;;;;;;5069235;28;20115;-72
2023/08/22 11:02:39;;;;;;;19.38;10.10;;;26.90;99.90;;;;;;5069259;28;20032;-71
2023/08/22 11:05:10;;;;;;;6.90;5.05;;;26.60;99.90;;;;;;5069590;28;20111;-71
2023/08/22 11:07:36;;;;;;;10.77;5.18;;;26.90;1.00;;;;;;5068802;28;20074;-72
2023/08/22 11:10:04;;;;;;;11.68;4.15;;;27.10;1.00;;;;;;5069181;28;20068;-71
2023/08/22 11:12:29;;;;;;;10.80;4.90;;;27.20;99.90;;;;;;5057224;28;20119;-71
2023/08/22 11:14:57;;;;;;;9.93;4.85;;;27.60;99.90;;;;;;5066987;28;20052;-72
2023/08/22 11:17:23;;;;;;;11.30;5.65;;;27.20;99.90;;;;;;5068656;28;20127;-73
2023/08/22 11:19:51;;;;;;;7.03;5.03;;;27.00;99.90;;;;;;5066998;28;20104;-71
2023/08/22 11:22:17;;;;;;;9.93;4.45;;;26.70;99.90;;;;;;5068547;28;20032;-71
2023/08/22 11:24:45;;;;;;;12.25;4.93;;;26.70;99.90;;;;;;5068013;28;20040;-71
2023/08/22 11:27:13;;;;;;;7.40;4.07;;;26.60;99.90;;;;;;5068928;28;20024;-71
2023/08/22 11:29:49;;;;;;;9.95;5.03;;;26.70;99.90;;;;;;5069212;28;20536;-71
2023/08/22 11:35:03;;;;;;;12.85;5.88;;;26.80;99.90;;;;;;5110106;27;20445;-71
2023/08/22 11:37:31;;;;;;;15.57;6.35;;;27.00;99.90;;;;;;5106667;28;20111;-71
2023/08/22 11:39:59;;;;;;;12.55;5.07;;;27.00;99.90;;;;;;5091271;28;20024;-71
2023/08/22 11:42:26;;;;;;;11.48;6.25;;;27.50;99.90;;;;;;5089002;28;20420;-72
2023/08/22 11:45:04;;;;;;;12.13;5.80;;;27.40;99.90;;;;;;5089648;28;20040;-72
2023/08/22 11:47:43;;;;;;;11.45;5.55;;;27.10;99.90;;;;;;5084524;28;20036;-71
2023/08/22 11:50:20;;;;;;;9.30;5.07;;;27.10;99.90;;;;;;5090020;28;20021;-72
2023/08/22 11:52:47;;;;;;;10.15;4.40;;;27.20;99.90;;;;;;5068656;28;20090;-71
2023/08/22 11:55:22;;;;;;;10.07;4.47;;;27.30;99.90;;;;;;5070771;28;20124;-71
2023/08/22 11:57:50;;;;;;;8.75;4.25;;;27.50;99.90;;;;;;5071019;28;20063;-72
2023/08/22 12:00:16;;;;;;;10.18;4.05;;;27.70;99.90;;;;;;5070363;28;20528;-71
2023/08/22 12:02:48;;;;;;;8.45;3.97;;;27.80;99.90;;;;;;5079113;28;20024;-71
2023/08/22 12:05:30;;;;;;;10.23;3.80;;;27.40;99.90;;;;;;5086654;28;20025;-71
2023/08/22 12:07:57;;;;;;;7.40;4.38;;;27.40;99.90;;;;;;5069485;28;20036;-75
2023/08/22 12:10:23;;;;;;;9.38;4.50;;;27.40;99.90;;;;;;5070244;28;20478;-71
2023/08/22 12:12:48;;;;;;;11.65;4.65;;;27.70;99.90;;;;;;5070231;28;20027;-71
2023/08/22 12:15:14;;;;;;;11.52;4.30;;;28.10;99.90;;;;;;5069678;28;20025;-71
2023/08/22 12:17:39;;;;;;;10.07;4.45;;;28.10;99.90;;;;;;5069173;28;20048;-72
2023/08/22 12:20:06;;;;;;;9.30;5.30;;;28.20;99.90;;;;;;5068561;28;20115;-71
2023/08/22 12:22:31;;;;;;;12.13;5.80;;;28.30;99.90;;;;;;5071368;28;20047;-72
2023/08/22 12:24:57;;;;;;;6.95;5.18;;;28.30;99.90;;;;;;5069208;28;20482;-71
2023/08/22 12:27:27;;;;;;;8.13;5.75;;;28.60;99.90;;;;;;5068468;28;20028;-72
2023/08/22 12:29:53;;;;;;;11.02;5.75;;;28.50;99.90;;;;;;5068248;28;20126;-71
2023/08/22 12:32:19;;;;;;;8.25;6.35;;;28.80;99.90;;;;;;5069600;28;20552;-72
2023/08/22 12:34:44;;;;;;;8.07;6.28;;;28.60;99.90;;;;;;5068575;28;20182;-71
2023/08/22 12:37:10;;;;;;;8.88;5.43;;;28.30;93.80;;;;;;5069071;28;20033;-72
2023/08/22 12:39:36;;;;;;;10.25;6.22;;;28.20;91.20;;;;;;5068803;28;20041;-72
2023/08/22 12:42:02;;;;;;;12.98;5.93;;;28.20;99.90;;;;;;5068642;28;20043;-72
2023/08/22 12:44:28;;;;;;;9.52;5.20;;;28.40;99.40;;;;;;5065318;28;20060;-72
2023/08/22 12:46:56;;;;;;;13.02;5.70;;;28.10;69.40;;;;;;5055628;28;20115;-71